createdAt,value
2023-02-15T00:00:28.415Z,14.75
2023-02-15T00:03:30.470Z,14.88
2023-02-15T00:06:32.522Z,14.83
2023-02-15T00:09:36.202Z,14.86
2023-02-15T00:12:38.813Z,14.88
2023-02-15T00:15:40.942Z,14.66
2023-02-15T00:18:43.040Z,14.61
2023-02-15T00:21:45.763Z,14.55
2023-02-15T00:24:47.896Z,14.59
2023-02-15T00:27:50.016Z,14.68
2023-02-15T00:30:52.042Z,14.54
2023-02-15T00:33:54.235Z,14.62
2023-02-15T00:36:56.384Z,14.64
2023-02-15T00:39:59.156Z,14.44
2023-02-15T00:43:01.844Z,14.63
2023-02-15T00:46:06.205Z,14.56
2023-02-15T00:49:08.231Z,14.74
2023-02-15T00:52:10.986Z,14.69
2023-02-15T00:55:12.981Z,14.35
2023-02-15T00:58:15.620Z,14.32
2023-02-15T01:01:19.921Z,14.46
2023-02-15T01:04:21.943Z,14.33
2023-02-15T01:07:24.057Z,14.25
2023-02-15T01:10:27.300Z,14.27
2023-02-15T01:13:30.878Z,14.30
2023-02-15T01:16:32.911Z,14.41
2023-02-15T01:19:35.318Z,14.44
2023-02-15T01:22:38.832Z,14.51
2023-02-15T01:25:40.999Z,14.40
2023-02-15T01:28:43.914Z,14.40
2023-02-15T01:31:46.112Z,14.38
2023-02-15T01:34:50.171Z,14.46
2023-02-15T01:37:54.819Z,14.73
2023-02-15T01:41:16.924Z,14.52
2023-02-15T01:44:58.843Z,14.45
2023-02-15T01:48:28.418Z,14.48
2023-02-15T01:51:34.437Z,14.41
2023-02-15T01:54:39.265Z,14.24
2023-02-15T01:57:43.164Z,14.40
2023-02-15T02:00:47.099Z,14.33
2023-02-15T02:04:25.177Z,14.35
2023-02-15T02:07:33.607Z,14.40
2023-02-15T02:10:35.638Z,14.29
2023-02-15T02:13:37.816Z,14.17
2023-02-15T02:16:48.588Z,14.65
2023-02-15T02:19:56.323Z,14.64
2023-02-15T02:23:07.215Z,14.57
2023-02-15T02:26:40.085Z,14.42
2023-02-15T02:30:21.010Z,14.39
2023-02-15T02:33:43.522Z,14.38
2023-02-15T02:36:59.428Z,14.31
2023-02-15T02:40:07.227Z,14.20
2023-02-15T02:43:20.543Z,14.12
2023-02-15T02:46:52.110Z,14.38
2023-02-15T02:50:00.910Z,14.29
2023-02-15T02:53:03.000Z,14.22
2023-02-15T02:56:24.910Z,14.12
2023-02-15T02:59:38.004Z,14.08
2023-02-15T03:02:45.078Z,14.29
2023-02-15T03:05:52.356Z,14.34
2023-02-15T03:09:02.920Z,14.25
2023-02-15T03:12:05.382Z,14.35
2023-02-15T03:15:22.487Z,14.29
2023-02-15T03:18:32.331Z,14.07
2023-02-15T03:22:20.813Z,13.96
2023-02-15T03:25:27.821Z,14.04
2023-02-15T03:28:37.947Z,13.99
2023-02-15T03:31:45.477Z,13.73
2023-02-15T03:34:47.771Z,14.05
2023-02-15T03:37:55.873Z,13.90
2023-02-15T03:41:12.478Z,13.77
2023-02-15T03:44:32.017Z,13.70
2023-02-15T03:47:39.154Z,14.07
2023-02-15T03:51:00.631Z,14.11
2023-02-15T03:54:13.694Z,14.13
2023-02-15T03:57:37.486Z,14.09
2023-02-15T04:01:05.581Z,14.18
2023-02-15T04:04:25.262Z,14.09
2023-02-15T04:07:27.622Z,13.96
2023-02-15T04:10:48.361Z,13.87
2023-02-15T04:13:57.473Z,13.79
2023-02-15T04:16:59.809Z,13.79
2023-02-15T04:20:20.651Z,13.73
2023-02-15T04:23:41.465Z,13.80
2023-02-15T04:26:43.549Z,13.84
2023-02-15T04:29:45.809Z,13.75
2023-02-15T04:32:48.673Z,13.87
2023-02-15T04:35:50.727Z,13.93
2023-02-15T04:38:52.869Z,13.94
2023-02-15T04:41:54.953Z,13.97
2023-02-15T04:44:57.639Z,14.01
2023-02-15T04:47:59.763Z,13.98
2023-02-15T04:51:07.844Z,14.01
2023-02-15T04:54:09.958Z,13.81
2023-02-15T04:57:12.044Z,13.76
2023-02-15T05:00:14.437Z,13.68
2023-02-15T05:03:17.649Z,13.68
2023-02-15T05:06:21.906Z,13.83
2023-02-15T05:09:23.883Z,13.76
2023-02-15T05:12:25.961Z,13.63
2023-02-15T05:15:28.028Z,13.66
2023-02-15T05:18:30.157Z,13.85
2023-02-15T05:21:33.515Z,14.27
2023-02-15T05:24:54.146Z,14.58
2023-02-15T05:28:14.922Z,14.64
2023-02-15T05:31:20.642Z,14.28
2023-02-15T05:34:22.778Z,14.05
2023-02-15T05:37:24.965Z,13.98
2023-02-15T05:40:27.255Z,14.72
2023-02-15T05:43:30.593Z,15.71
2023-02-15T05:46:32.896Z,16.52
2023-02-15T05:49:35.080Z,17.70
2023-02-15T05:52:37.178Z,18.05
2023-02-15T05:55:40.175Z,17.31
2023-02-15T05:58:42.854Z,16.68
2023-02-15T06:01:44.850Z,16.31
2023-02-15T06:04:46.882Z,16.09
2023-02-15T06:07:49.196Z,15.98
2023-02-15T06:10:51.444Z,15.99
2023-02-15T06:13:53.495Z,15.91
2023-02-15T06:16:55.413Z,15.48
2023-02-15T06:19:57.565Z,15.53
2023-02-15T06:22:59.531Z,15.48
2023-02-15T06:26:01.860Z,15.42
2023-02-15T06:29:04.270Z,15.51
2023-02-15T06:32:06.906Z,15.47
2023-02-15T06:35:09.040Z,15.35
2023-02-15T06:38:12.992Z,15.28
2023-02-15T06:41:15.271Z,15.31
2023-02-15T06:44:18.508Z,15.38
2023-02-15T06:47:20.685Z,15.45
2023-02-15T06:50:22.710Z,16.18
2023-02-15T06:53:24.794Z,16.76
2023-02-15T06:56:27.135Z,17.40
2023-02-15T06:59:29.159Z,17.74
2023-02-15T07:02:31.116Z,18.07
2023-02-15T07:05:35.406Z,18.61
2023-02-15T07:08:38.802Z,18.27
2023-02-15T07:11:58.914Z,18.34
2023-02-15T07:15:00.968Z,18.40
2023-02-15T07:18:02.970Z,18.13
2023-02-15T07:21:05.215Z,17.66
2023-02-15T07:24:07.628Z,17.68
2023-02-15T07:27:09.633Z,17.55
2023-02-15T07:30:14.772Z,17.44
2023-02-15T07:33:28.068Z,17.48
2023-02-15T07:36:30.031Z,17.24
2023-02-15T07:39:32.051Z,17.03
2023-02-15T07:42:34.021Z,16.70
2023-02-15T07:45:36.079Z,16.81
2023-02-15T07:48:39.329Z,17.58
2023-02-15T07:51:42.310Z,18.47
2023-02-15T07:54:44.357Z,19.84
2023-02-15T07:57:48.342Z,19.57
2023-02-15T08:00:59.689Z,20.07
2023-02-15T08:04:03.953Z,19.92
2023-02-15T08:07:06.493Z,19.42
2023-02-15T08:10:13.235Z,19.14
2023-02-15T08:13:16.239Z,19.86
2023-02-15T08:16:21.657Z,19.63
2023-02-15T08:19:32.950Z,19.53
2023-02-15T08:22:35.061Z,20.14
2023-02-15T08:25:37.027Z,20.13
2023-02-15T08:28:39.982Z,19.16
2023-02-15T08:31:43.264Z,20.42
2023-02-15T08:34:45.349Z,21.01
2023-02-15T08:37:47.612Z,20.34
2023-02-15T08:40:49.617Z,21.11
2023-02-15T08:43:57.024Z,21.51
2023-02-15T08:47:04.717Z,20.76
2023-02-15T08:50:07.613Z,21.01
2023-02-15T08:53:09.876Z,21.18
2023-02-15T08:56:13.119Z,20.64
2023-02-15T08:59:23.166Z,20.11
2023-02-15T09:02:25.257Z,20.79
2023-02-15T09:05:27.429Z,20.39
2023-02-15T09:08:30.113Z,20.18
2023-02-15T09:11:36.234Z,20.61
2023-02-15T09:14:38.393Z,20.94
2023-02-15T09:17:40.418Z,22.57
2023-02-15T09:20:42.509Z,22.80
2023-02-15T09:23:47.677Z,21.94
2023-02-15T09:26:50.336Z,21.37
2023-02-15T09:29:52.424Z,21.40
2023-02-15T09:32:54.591Z,21.06
2023-02-15T09:35:58.012Z,20.45
2023-02-15T09:39:04.836Z,19.83
2023-02-15T09:42:34.747Z,19.31
2023-02-15T09:46:06.178Z,19.07
2023-02-15T09:49:22.126Z,20.06
2023-02-15T09:52:44.098Z,20.28
2023-02-15T09:56:39.863Z,20.11
2023-02-15T10:00:00.452Z,20.00
2023-02-15T10:03:22.016Z,19.98
2023-02-15T10:06:45.291Z,19.76
2023-02-15T10:09:53.661Z,19.65
2023-02-15T10:13:22.539Z,19.64
2023-02-15T10:16:42.586Z,19.44
2023-02-15T10:19:50.834Z,18.97
2023-02-15T10:23:11.204Z,19.01
2023-02-15T10:26:44.534Z,18.97
2023-02-15T10:30:08.330Z,18.88
2023-02-15T10:33:19.208Z,18.58
2023-02-15T10:36:34.929Z,18.54
2023-02-15T10:39:55.369Z,18.40
2023-02-15T10:43:23.049Z,18.51
2023-02-15T10:46:56.417Z,18.38
2023-02-15T10:50:37.643Z,18.52
2023-02-15T10:53:52.176Z,18.45
2023-02-15T10:57:12.646Z,18.24
2023-02-15T11:00:32.188Z,18.02
2023-02-15T11:04:17.458Z,17.99
2023-02-15T11:07:36.457Z,17.94
2023-02-15T11:10:53.407Z,17.94
2023-02-15T11:14:03.032Z,17.66
2023-02-15T11:17:15.678Z,17.59
2023-02-15T11:20:17.834Z,17.92
2023-02-15T11:23:23.178Z,17.48
2023-02-15T11:26:26.302Z,17.57
2023-02-15T11:29:40.482Z,17.51
2023-02-15T11:32:53.334Z,17.39
2023-02-15T11:36:08.000Z,17.53
2023-02-15T11:39:17.286Z,17.39
2023-02-15T11:42:24.664Z,17.50
2023-02-15T11:45:30.398Z,17.68
2023-02-15T11:48:33.738Z,17.74
2023-02-15T11:51:36.716Z,17.59
2023-02-15T11:54:43.994Z,17.51
2023-02-15T11:58:02.499Z,17.48
2023-02-15T12:01:36.071Z,17.57
2023-02-15T12:04:41.736Z,17.47
2023-02-15T12:07:50.653Z,17.29
2023-02-15T12:11:01.988Z,17.53
2023-02-15T12:14:07.180Z,17.86
2023-02-15T12:17:14.633Z,18.08
2023-02-15T12:20:16.682Z,18.32
2023-02-15T12:23:19.892Z,18.32
2023-02-15T12:26:38.259Z,18.30
2023-02-15T12:30:02.231Z,18.16
2023-02-15T12:33:11.669Z,18.26
2023-02-15T12:36:20.909Z,18.07
2023-02-15T12:39:33.132Z,18.23
2023-02-15T12:42:46.037Z,18.06
2023-02-15T12:45:57.071Z,18.03
2023-02-15T12:49:11.423Z,17.95
2023-02-15T12:52:19.177Z,17.98
2023-02-15T12:55:27.612Z,18.14
2023-02-15T12:58:31.389Z,18.07
2023-02-15T13:01:34.706Z,18.03
2023-02-15T13:04:37.000Z,18.08
2023-02-15T13:07:39.099Z,17.92
2023-02-15T13:11:03.370Z,17.92
2023-02-15T13:14:23.624Z,17.86
2023-02-15T13:17:31.096Z,17.62
2023-02-15T13:20:35.549Z,17.56
2023-02-15T13:23:40.270Z,17.48
2023-02-15T13:26:48.305Z,17.28
2023-02-15T13:29:59.557Z,17.24
2023-02-15T13:33:16.378Z,17.16
2023-02-15T13:36:44.482Z,17.09
2023-02-15T13:39:50.058Z,17.06
2023-02-15T13:43:04.319Z,17.13
2023-02-15T13:46:24.775Z,17.42
2023-02-15T13:49:45.077Z,17.82
2023-02-15T13:53:13.043Z,18.02
2023-02-15T13:56:53.294Z,18.38
2023-02-15T14:00:14.906Z,18.59
2023-02-15T14:03:49.769Z,18.13
2023-02-15T14:07:06.253Z,18.11
2023-02-15T14:10:17.138Z,17.98
2023-02-15T14:13:51.162Z,18.03
2023-02-15T14:17:23.591Z,17.97
2023-02-15T14:20:52.863Z,17.94
2023-02-15T14:24:28.257Z,17.66
2023-02-15T14:27:48.593Z,17.52
2023-02-15T14:30:52.347Z,17.53
2023-02-15T14:33:57.148Z,17.53
2023-02-15T14:36:59.759Z,17.63
2023-02-15T14:40:32.303Z,17.50
2023-02-15T14:43:52.754Z,17.62
2023-02-15T14:46:57.468Z,17.75
2023-02-15T14:49:59.577Z,17.99
2023-02-15T14:53:23.320Z,17.94
2023-02-15T14:56:27.571Z,17.73
2023-02-15T14:59:46.138Z,17.55
2023-02-15T15:02:51.575Z,17.62
2023-02-15T15:06:00.366Z,17.81
2023-02-15T15:09:29.651Z,18.58
2023-02-15T15:12:34.541Z,18.15
2023-02-15T15:15:53.163Z,18.19
2023-02-15T15:19:10.576Z,17.87
2023-02-15T15:22:27.443Z,17.70
2023-02-15T15:25:46.814Z,17.48
2023-02-15T15:28:51.814Z,17.48
2023-02-15T15:31:57.668Z,17.18
2023-02-15T15:35:14.964Z,16.99
2023-02-15T15:38:24.666Z,16.98
2023-02-15T15:41:43.169Z,17.23
2023-02-15T15:45:24.094Z,17.85
2023-02-15T15:48:39.303Z,18.19
2023-02-15T15:51:43.505Z,18.01
2023-02-15T15:54:48.765Z,17.80
2023-02-15T15:57:57.960Z,17.66
2023-02-15T16:01:10.187Z,17.39
2023-02-15T16:04:25.353Z,17.36
2023-02-15T16:07:27.817Z,17.26
2023-02-15T16:10:33.769Z,17.14
2023-02-15T16:13:37.504Z,17.13
2023-02-15T16:16:43.962Z,17.36
2023-02-15T16:19:49.392Z,17.58
2023-02-15T16:22:58.472Z,17.54
2023-02-15T16:26:15.605Z,17.60
2023-02-15T16:29:20.439Z,17.87
2023-02-15T16:32:28.007Z,18.02
2023-02-15T16:35:30.253Z,18.28
2023-02-15T16:38:58.335Z,18.36
2023-02-15T16:42:03.240Z,18.37
2023-02-15T16:45:09.019Z,18.43
2023-02-15T16:48:23.614Z,18.44
2023-02-15T16:51:29.010Z,18.49
2023-02-15T16:54:32.563Z,18.45
2023-02-15T16:57:38.271Z,18.37
2023-02-15T17:00:42.205Z,18.31
2023-02-15T17:03:44.454Z,18.26
2023-02-15T17:07:04.909Z,18.07
2023-02-15T17:10:31.864Z,18.22
2023-02-15T17:13:33.863Z,18.07
2023-02-15T17:16:51.437Z,17.81
2023-02-15T17:19:56.184Z,17.72
2023-02-15T17:22:58.769Z,17.58
2023-02-15T17:26:12.312Z,17.74
2023-02-15T17:29:20.586Z,17.91
2023-02-15T17:32:26.243Z,18.03
2023-02-15T17:35:35.644Z,18.08
2023-02-15T17:38:40.541Z,17.98
2023-02-15T17:41:42.843Z,17.44
2023-02-15T17:44:44.893Z,17.33
2023-02-15T17:47:48.983Z,17.12
2023-02-15T17:50:52.219Z,16.97
2023-02-15T17:54:16.092Z,17.02
2023-02-15T17:57:18.288Z,17.37
2023-02-15T18:00:39.076Z,17.83
2023-02-15T18:04:02.854Z,18.09
2023-02-15T18:07:27.482Z,18.24
2023-02-15T18:10:52.872Z,18.34
2023-02-15T18:14:03.881Z,18.41
2023-02-15T18:17:06.210Z,18.54
2023-02-15T18:20:32.176Z,18.61
2023-02-15T18:23:34.527Z,18.56
2023-02-15T18:26:37.887Z,18.51
2023-02-15T18:29:41.406Z,18.33
2023-02-15T18:32:46.162Z,18.41
2023-02-15T18:35:52.275Z,18.42
2023-02-15T18:38:58.103Z,18.34
2023-02-15T18:42:04.535Z,18.29
2023-02-15T18:45:37.432Z,18.22
2023-02-15T18:48:39.545Z,18.05
2023-02-15T18:51:43.076Z,18.10
2023-02-15T18:54:46.790Z,18.03
2023-02-15T18:57:51.631Z,18.22
2023-02-15T19:00:56.048Z,18.01
2023-02-15T19:03:59.928Z,19.12
2023-02-15T19:07:03.360Z,18.41
2023-02-15T19:10:14.636Z,17.99
2023-02-15T19:13:19.808Z,17.84
2023-02-15T19:16:43.443Z,17.58
2023-02-15T19:19:49.404Z,17.45
2023-02-15T19:22:56.468Z,17.19
2023-02-15T19:26:02.345Z,17.18
2023-02-15T19:29:11.253Z,17.24
2023-02-15T19:32:18.006Z,17.27
2023-02-15T19:35:30.244Z,17.12
2023-02-15T19:38:37.268Z,17.14
2023-02-15T19:41:42.824Z,17.19
2023-02-15T19:44:48.827Z,17.08
2023-02-15T19:47:55.658Z,17.06
2023-02-15T19:51:01.298Z,16.77
2023-02-15T19:54:03.640Z,16.64
2023-02-15T19:57:08.433Z,16.65
2023-02-15T20:00:29.951Z,16.52
2023-02-15T20:03:33.298Z,16.63
2023-02-15T20:06:35.301Z,16.58
2023-02-15T20:09:40.923Z,16.46
2023-02-15T20:12:43.094Z,16.32
2023-02-15T20:15:46.126Z,16.10
2023-02-15T20:18:48.591Z,16.16
2023-02-15T20:21:54.682Z,16.21
2023-02-15T20:24:57.196Z,16.10
2023-02-15T20:28:01.517Z,15.92
2023-02-15T20:31:04.007Z,15.92
2023-02-15T20:34:06.208Z,15.84
2023-02-15T20:37:26.559Z,15.71
2023-02-15T20:40:32.767Z,15.52
2023-02-15T20:43:34.854Z,15.49
2023-02-15T20:46:36.845Z,15.51
2023-02-15T20:49:39.418Z,15.83
2023-02-15T20:52:44.140Z,16.99
2023-02-15T20:55:46.173Z,17.40
2023-02-15T20:58:48.643Z,16.82
2023-02-15T21:01:52.513Z,16.83
2023-02-15T21:04:55.658Z,17.68
2023-02-15T21:07:59.284Z,17.81
2023-02-15T21:11:01.976Z,17.65
2023-02-15T21:14:04.262Z,18.13
2023-02-15T21:17:06.698Z,18.34
2023-02-15T21:20:14.194Z,17.72
2023-02-15T21:23:19.980Z,18.12
2023-02-15T21:26:23.185Z,19.07
2023-02-15T21:29:28.190Z,19.44
2023-02-15T21:32:32.507Z,18.77
2023-02-15T21:35:34.679Z,18.76
2023-02-15T21:38:37.104Z,19.59
2023-02-15T21:41:58.489Z,19.14
2023-02-15T21:45:19.419Z,18.79
2023-02-15T21:48:22.614Z,19.33
2023-02-15T21:51:44.582Z,19.20
2023-02-15T21:54:47.142Z,18.45
2023-02-15T21:57:49.125Z,18.45
2023-02-15T22:00:54.696Z,19.50
2023-02-15T22:03:58.854Z,19.97
2023-02-15T22:07:00.869Z,19.56
2023-02-15T22:10:03.091Z,19.47
2023-02-15T22:13:05.750Z,19.93
2023-02-15T22:16:14.740Z,19.26
2023-02-15T22:19:16.885Z,18.67
2023-02-15T22:22:18.995Z,19.82
2023-02-15T22:25:24.084Z,19.63
2023-02-15T22:28:34.800Z,19.50
2023-02-15T22:31:36.968Z,19.30
2023-02-15T22:34:39.411Z,20.24
2023-02-15T22:37:42.761Z,19.45
2023-02-15T22:40:46.806Z,18.98
2023-02-15T22:43:49.498Z,19.91
2023-02-15T22:46:52.235Z,20.18
2023-02-15T22:49:57.175Z,19.57
2023-02-15T22:53:01.275Z,19.36
2023-02-15T22:56:07.845Z,20.21
2023-02-15T22:59:16.308Z,19.74
2023-02-15T23:02:18.495Z,19.38
2023-02-15T23:05:24.161Z,19.67
2023-02-15T23:08:26.143Z,20.30
2023-02-15T23:11:28.903Z,19.97
2023-02-15T23:14:36.689Z,19.52
2023-02-15T23:17:38.706Z,19.98
2023-02-15T23:20:40.897Z,18.81
2023-02-15T23:23:47.788Z,18.46
2023-02-15T23:26:50.798Z,18.13
2023-02-15T23:29:52.801Z,18.16
2023-02-15T23:32:58.535Z,17.91
2023-02-15T23:36:00.518Z,17.85
2023-02-15T23:39:32.868Z,17.82
2023-02-15T23:42:36.006Z,17.67
2023-02-15T23:45:39.592Z,17.65
2023-02-15T23:48:42.638Z,17.74
2023-02-15T23:51:54.485Z,17.95
2023-02-15T23:54:56.476Z,17.68
2023-02-15T23:57:58.600Z,17.48
